sensor_id;sensor_type;location;lat;lon;timestamp;P1;durP1;ratioP1;P2;durP2;ratioP2
12181;SDS011;6154;51.550;12.138;2023-02-03T00:01:17;2.80;;;0.88;;
12181;SDS011;6154;51.550;12.138;2023-02-03T00:03:46;0.85;;;0.85;;
12181;SDS011;6154;51.550;12.138;2023-02-03T00:06:14;1.12;;;0.52;;
12181;SDS011;6154;51.550;12.138;2023-02-03T00:08:42;0.95;;;0.35;;
12181;SDS011;6154;51.550;12.138;2023-02-03T00:11:10;1.70;;;0.85;;
12181;SDS011;6154;51.550;12.138;2023-02-03T00:13:40;3.33;;;0.70;;
12181;SDS011;6154;51.550;12.138;2023-02-03T00:16:08;0.82;;;0.70;;
12181;SDS011;6154;51.550;12.138;2023-02-03T00:18:36;2.42;;;0.80;;
12181;SDS011;6154;51.550;12.138;2023-02-03T00:21:04;1.08;;;0.85;;
12181;SDS011;6154;51.550;12.138;2023-02-03T00:23:32;6.55;;;1.25;;
12181;SDS011;6154;51.550;12.138;2023-02-03T00:26:05;4.78;;;1.00;;
12181;SDS011;6154;51.550;12.138;2023-02-03T00:28:35;3.78;;;1.02;;
12181;SDS011;6154;51.550;12.138;2023-02-03T00:31:05;3.03;;;1.00;;
12181;SDS011;6154;51.550;12.138;2023-02-03T00:33:33;3.15;;;1.12;;
12181;SDS011;6154;51.550;12.138;2023-02-03T00:36:03;1.25;;;0.88;;
12181;SDS011;6154;51.550;12.138;2023-02-03T00:38:32;0.60;;;0.60;;
12181;SDS011;6154;51.550;12.138;2023-02-03T00:41:00;1.77;;;0.68;;
12181;SDS011;6154;51.550;12.138;2023-02-03T00:43:28;0.95;;;0.65;;
12181;SDS011;6154;51.550;12.138;2023-02-03T00:45:56;0.40;;;0.40;;
12181;SDS011;6154;51.550;12.138;2023-02-03T00:48:26;1.05;;;0.65;;
12181;SDS011;6154;51.550;12.138;2023-02-03T00:50:54;1.52;;;0.40;;
12181;SDS011;6154;51.550;12.138;2023-02-03T00:53:24;1.62;;;0.47;;
12181;SDS011;6154;51.550;12.138;2023-02-03T00:55:52;1.65;;;0.40;;
12181;SDS011;6154;51.550;12.138;2023-02-03T00:58:21;3.08;;;0.75;;
12181;SDS011;6154;51.550;12.138;2023-02-03T01:00:49;2.35;;;0.60;;
12181;SDS011;6154;51.550;12.138;2023-02-03T01:03:17;0.30;;;0.30;;
12181;SDS011;6154;51.550;12.138;2023-02-03T01:05:47;0.32;;;0.32;;
12181;SDS011;6154;51.550;12.138;2023-02-03T01:08:15;1.23;;;0.40;;
12181;SDS011;6154;51.550;12.138;2023-02-03T01:10:43;0.52;;;0.47;;
12181;SDS011;6154;51.550;12.138;2023-02-03T01:13:11;0.73;;;0.47;;
12181;SDS011;6154;51.550;12.138;2023-02-03T01:15:44;0.70;;;0.50;;
12181;SDS011;6154;51.550;12.138;2023-02-03T01:18:13;0.45;;;0.45;;
12181;SDS011;6154;51.550;12.138;2023-02-03T01:20:42;3.17;;;0.75;;
12181;SDS011;6154;51.550;12.138;2023-02-03T01:23:12;0.43;;;0.43;;
12181;SDS011;6154;51.550;12.138;2023-02-03T01:25:40;2.28;;;0.75;;
12181;SDS011;6154;51.550;12.138;2023-02-03T01:28:08;2.40;;;0.50;;
12181;SDS011;6154;51.550;12.138;2023-02-03T01:30:37;0.47;;;0.47;;
12181;SDS011;6154;51.550;12.138;2023-02-03T01:33:05;1.75;;;0.90;;
12181;SDS011;6154;51.550;12.138;2023-02-03T01:35:33;0.95;;;0.62;;
12181;SDS011;6154;51.550;12.138;2023-02-03T01:38:01;0.82;;;0.82;;
12181;SDS011;6154;51.550;12.138;2023-02-03T01:40:31;1.90;;;0.93;;
12181;SDS011;6154;51.550;12.138;2023-02-03T01:42:59;1.75;;;1.00;;
12181;SDS011;6154;51.550;12.138;2023-02-03T01:45:30;1.10;;;0.85;;
12181;SDS011;6154;51.550;12.138;2023-02-03T01:47:58;3.40;;;0.90;;
12181;SDS011;6154;51.550;12.138;2023-02-03T01:50:28;1.45;;;0.60;;
12181;SDS011;6154;51.550;12.138;2023-02-03T01:52:59;1.95;;;1.08;;
12181;SDS011;6154;51.550;12.138;2023-02-03T01:55:30;1.35;;;0.93;;
12181;SDS011;6154;51.550;12.138;2023-02-03T01:58:03;1.50;;;1.12;;
12181;SDS011;6154;51.550;12.138;2023-02-03T02:00:36;2.53;;;0.77;;
12181;SDS011;6154;51.550;12.138;2023-02-03T02:03:05;1.80;;;0.90;;
12181;SDS011;6154;51.550;12.138;2023-02-03T02:05:37;1.58;;;1.15;;
12181;SDS011;6154;51.550;12.138;2023-02-03T02:08:12;1.25;;;1.10;;
12181;SDS011;6154;51.550;12.138;2023-02-03T02:10:45;1.60;;;1.33;;
12181;SDS011;6154;51.550;12.138;2023-02-03T02:13:13;1.62;;;1.30;;
12181;SDS011;6154;51.550;12.138;2023-02-03T02:15:47;1.65;;;1.20;;
12181;SDS011;6154;51.550;12.138;2023-02-03T02:18:27;1.83;;;1.20;;
12181;SDS011;6154;51.550;12.138;2023-02-03T02:24:10;2.12;;;1.60;;
12181;SDS011;6154;51.550;12.138;2023-02-03T02:26:56;1.25;;;1.12;;
12181;SDS011;6154;51.550;12.138;2023-02-03T02:29:44;1.67;;;1.10;;
12181;SDS011;6154;51.550;12.138;2023-02-03T02:32:39;3.00;;;1.40;;
12181;SDS011;6154;51.550;12.138;2023-02-03T02:35:17;2.08;;;1.00;;
12181;SDS011;6154;51.550;12.138;2023-02-03T02:37:58;1.98;;;1.62;;
12181;SDS011;6154;51.550;12.138;2023-02-03T02:40:32;2.15;;;1.65;;
12181;SDS011;6154;51.550;12.138;2023-02-03T02:43:06;3.83;;;1.67;;
12181;SDS011;6154;51.550;12.138;2023-02-03T02:45:40;2.62;;;1.42;;
12181;SDS011;6154;51.550;12.138;2023-02-03T02:48:16;3.17;;;1.85;;
12181;SDS011;6154;51.550;12.138;2023-02-03T02:50:51;3.65;;;1.85;;
12181;SDS011;6154;51.550;12.138;2023-02-03T02:53:25;4.82;;;2.08;;
12181;SDS011;6154;51.550;12.138;2023-02-03T02:55:55;3.92;;;2.22;;
12181;SDS011;6154;51.550;12.138;2023-02-03T02:58:25;3.10;;;2.08;;
12181;SDS011;6154;51.550;12.138;2023-02-03T03:00:55;2.62;;;1.62;;
12181;SDS011;6154;51.550;12.138;2023-02-03T03:03:24;3.58;;;2.03;;
12181;SDS011;6154;51.550;12.138;2023-02-03T03:05:53;2.55;;;1.98;;
12181;SDS011;6154;51.550;12.138;2023-02-03T03:08:26;3.58;;;2.37;;
12181;SDS011;6154;51.550;12.138;2023-02-03T03:10:59;4.90;;;2.78;;
12181;SDS011;6154;51.550;12.138;2023-02-03T03:13:29;4.55;;;3.08;;
12181;SDS011;6154;51.550;12.138;2023-02-03T03:16:02;4.43;;;2.30;;
12181;SDS011;6154;51.550;12.138;2023-02-03T03:18:36;3.53;;;2.45;;
12181;SDS011;6154;51.550;12.138;2023-02-03T03:21:10;3.78;;;2.42;;
12181;SDS011;6154;51.550;12.138;2023-02-03T03:23:43;4.28;;;3.10;;
12181;SDS011;6154;51.550;12.138;2023-02-03T03:26:18;5.85;;;3.28;;
12181;SDS011;6154;51.550;12.138;2023-02-03T03:28:54;4.47;;;2.75;;
12181;SDS011;6154;51.550;12.138;2023-02-03T03:31:29;4.62;;;3.33;;
12181;SDS011;6154;51.550;12.138;2023-02-03T03:33:59;5.60;;;2.97;;
12181;SDS011;6154;51.550;12.138;2023-02-03T03:36:27;6.05;;;3.72;;
12181;SDS011;6154;51.550;12.138;2023-02-03T03:39:01;5.05;;;3.45;;
12181;SDS011;6154;51.550;12.138;2023-02-03T03:41:36;5.72;;;3.53;;
12181;SDS011;6154;51.550;12.138;2023-02-03T03:44:09;5.60;;;3.70;;
12181;SDS011;6154;51.550;12.138;2023-02-03T03:46:42;4.95;;;3.37;;
12181;SDS011;6154;51.550;12.138;2023-02-03T03:49:17;5.50;;;3.50;;
12181;SDS011;6154;51.550;12.138;2023-02-03T03:51:49;7.00;;;3.95;;
12181;SDS011;6154;51.550;12.138;2023-02-03T03:54:23;8.75;;;3.50;;
12181;SDS011;6154;51.550;12.138;2023-02-03T03:56:53;5.60;;;3.97;;
12181;SDS011;6154;51.550;12.138;2023-02-03T03:59:27;5.18;;;3.78;;
12181;SDS011;6154;51.550;12.138;2023-02-03T04:01:58;6.00;;;4.00;;
12181;SDS011;6154;51.550;12.138;2023-02-03T04:04:32;6.07;;;3.50;;
12181;SDS011;6154;51.550;12.138;2023-02-03T04:07:03;6.55;;;3.62;;
12181;SDS011;6154;51.550;12.138;2023-02-03T04:09:31;6.50;;;4.20;;
12181;SDS011;6154;51.550;12.138;2023-02-03T04:12:02;8.63;;;4.22;;
12181;SDS011;6154;51.550;12.138;2023-02-03T04:14:32;3.90;;;3.08;;
12181;SDS011;6154;51.550;12.138;2023-02-03T04:17:04;5.65;;;4.07;;
12181;SDS011;6154;51.550;12.138;2023-02-03T04:19:34;6.87;;;3.70;;
12181;SDS011;6154;51.550;12.138;2023-02-03T04:22:04;5.75;;;3.40;;
12181;SDS011;6154;51.550;12.138;2023-02-03T04:24:33;8.00;;;3.58;;
12181;SDS011;6154;51.550;12.138;2023-02-03T04:27:01;6.90;;;3.75;;
12181;SDS011;6154;51.550;12.138;2023-02-03T04:29:34;5.70;;;3.92;;
12181;SDS011;6154;51.550;12.138;2023-02-03T04:32:02;6.68;;;3.53;;
12181;SDS011;6154;51.550;12.138;2023-02-03T04:34:30;6.72;;;3.55;;
12181;SDS011;6154;51.550;12.138;2023-02-03T04:37:00;6.35;;;3.60;;
12181;SDS011;6154;51.550;12.138;2023-02-03T04:39:28;6.50;;;3.85;;
12181;SDS011;6154;51.550;12.138;2023-02-03T04:41:56;8.13;;;3.75;;
12181;SDS011;6154;51.550;12.138;2023-02-03T04:44:24;5.40;;;3.58;;
12181;SDS011;6154;51.550;12.138;2023-02-03T04:46:52;6.12;;;3.72;;
12181;SDS011;6154;51.550;12.138;2023-02-03T04:49:20;6.10;;;3.78;;
12181;SDS011;6154;51.550;12.138;2023-02-03T04:51:49;5.55;;;3.20;;
12181;SDS011;6154;51.550;12.138;2023-02-03T04:54:21;5.93;;;3.80;;
12181;SDS011;6154;51.550;12.138;2023-02-03T04:56:49;6.70;;;3.92;;
12181;SDS011;6154;51.550;12.138;2023-02-03T04:59:18;7.22;;;3.78;;
12181;SDS011;6154;51.550;12.138;2023-02-03T05:01:46;8.10;;;4.28;;
12181;SDS011;6154;51.550;12.138;2023-02-03T05:04:14;9.63;;;4.43;;
12181;SDS011;6154;51.550;12.138;2023-02-03T05:06:43;7.47;;;4.28;;
12181;SDS011;6154;51.550;12.138;2023-02-03T05:09:11;7.90;;;3.92;;
12181;SDS011;6154;51.550;12.138;2023-02-03T05:11:40;6.22;;;3.72;;
12181;SDS011;6154;51.550;12.138;2023-02-03T05:14:08;7.57;;;3.60;;
12181;SDS011;6154;51.550;12.138;2023-02-03T05:16:36;7.12;;;3.75;;
12181;SDS011;6154;51.550;12.138;2023-02-03T05:19:05;8.38;;;4.12;;
12181;SDS011;6154;51.550;12.138;2023-02-03T05:21:34;6.25;;;3.17;;
12181;SDS011;6154;51.550;12.138;2023-02-03T05:24:02;8.10;;;4.25;;
12181;SDS011;6154;51.550;12.138;2023-02-03T05:26:33;5.35;;;3.60;;
12181;SDS011;6154;51.550;12.138;2023-02-03T05:29:03;6.85;;;4.03;;
12181;SDS011;6154;51.550;12.138;2023-02-03T05:31:31;6.53;;;3.78;;
12181;SDS011;6154;51.550;12.138;2023-02-03T05:34:00;8.30;;;4.47;;
12181;SDS011;6154;51.550;12.138;2023-02-03T05:36:28;9.40;;;4.50;;
12181;SDS011;6154;51.550;12.138;2023-02-03T05:38:57;6.00;;;4.40;;
12181;SDS011;6154;51.550;12.138;2023-02-03T05:41:25;6.22;;;3.90;;
12181;SDS011;6154;51.550;12.138;2023-02-03T05:44:12;7.40;;;4.10;;
12181;SDS011;6154;51.550;12.138;2023-02-03T05:46:40;8.45;;;4.35;;
12181;SDS011;6154;51.550;12.138;2023-02-03T05:49:08;6.93;;;3.85;;
12181;SDS011;6154;51.550;12.138;2023-02-03T05:51:37;8.10;;;4.05;;
12181;SDS011;6154;51.550;12.138;2023-02-03T05:54:06;6.35;;;3.75;;
12181;SDS011;6154;51.550;12.138;2023-02-03T05:56:34;6.75;;;3.58;;
12181;SDS011;6154;51.550;12.138;2023-02-03T05:59:02;6.72;;;4.15;;
12181;SDS011;6154;51.550;12.138;2023-02-03T06:01:33;8.35;;;3.80;;
12181;SDS011;6154;51.550;12.138;2023-02-03T06:04:01;6.43;;;3.80;;
12181;SDS011;6154;51.550;12.138;2023-02-03T06:06:30;6.50;;;3.80;;
12181;SDS011;6154;51.550;12.138;2023-02-03T06:09:00;5.93;;;3.70;;
12181;SDS011;6154;51.550;12.138;2023-02-03T06:11:29;6.62;;;4.10;;
12181;SDS011;6154;51.550;12.138;2023-02-03T06:13:58;4.75;;;3.85;;
12181;SDS011;6154;51.550;12.138;2023-02-03T06:16:27;4.30;;;3.67;;
12181;SDS011;6154;51.550;12.138;2023-02-03T06:18:57;5.47;;;3.58;;
12181;SDS011;6154;51.550;12.138;2023-02-03T06:21:26;7.00;;;4.05;;
12181;SDS011;6154;51.550;12.138;2023-02-03T06:23:55;5.62;;;3.75;;
12181;SDS011;6154;51.550;12.138;2023-02-03T06:26:23;6.07;;;3.42;;
12181;SDS011;6154;51.550;12.138;2023-02-03T06:28:51;5.20;;;3.65;;
12181;SDS011;6154;51.550;12.138;2023-02-03T06:31:19;4.53;;;3.22;;
12181;SDS011;6154;51.550;12.138;2023-02-03T06:33:48;7.72;;;3.45;;
12181;SDS011;6154;51.550;12.138;2023-02-03T06:36:17;6.40;;;3.80;;
12181;SDS011;6154;51.550;12.138;2023-02-03T06:38:45;6.25;;;3.10;;
12181;SDS011;6154;51.550;12.138;2023-02-03T06:41:14;5.03;;;3.55;;
12181;SDS011;6154;51.550;12.138;2023-02-03T06:43:42;4.70;;;3.20;;
12181;SDS011;6154;51.550;12.138;2023-02-03T06:46:10;4.18;;;3.28;;
12181;SDS011;6154;51.550;12.138;2023-02-03T06:48:38;4.47;;;3.17;;
12181;SDS011;6154;51.550;12.138;2023-02-03T06:51:06;4.28;;;2.95;;
12181;SDS011;6154;51.550;12.138;2023-02-03T06:53:35;6.55;;;3.28;;
12181;SDS011;6154;51.550;12.138;2023-02-03T06:56:04;4.90;;;3.12;;
12181;SDS011;6154;51.550;12.138;2023-02-03T06:58:32;4.12;;;2.92;;
12181;SDS011;6154;51.550;12.138;2023-02-03T07:01:00;6.25;;;3.12;;
12181;SDS011;6154;51.550;12.138;2023-02-03T07:03:28;5.82;;;3.47;;
12181;SDS011;6154;51.550;12.138;2023-02-03T07:05:56;6.03;;;3.35;;
12181;SDS011;6154;51.550;12.138;2023-02-03T07:08:24;4.22;;;2.95;;
12181;SDS011;6154;51.550;12.138;2023-02-03T07:10:54;5.45;;;3.35;;
12181;SDS011;6154;51.550;12.138;2023-02-03T07:13:22;7.90;;;4.00;;
12181;SDS011;6154;51.550;12.138;2023-02-03T07:15:50;7.55;;;3.72;;
12181;SDS011;6154;51.550;12.138;2023-02-03T07:18:19;5.72;;;3.78;;
12181;SDS011;6154;51.550;12.138;2023-02-03T07:21:10;4.97;;;3.22;;
12181;SDS011;6154;51.550;12.138;2023-02-03T07:23:38;7.75;;;3.53;;
12181;SDS011;6154;51.550;12.138;2023-02-03T07:26:09;5.62;;;3.30;;
12181;SDS011;6154;51.550;12.138;2023-02-03T07:28:37;5.53;;;3.78;;
12181;SDS011;6154;51.550;12.138;2023-02-03T07:31:05;4.68;;;3.45;;
12181;SDS011;6154;51.550;12.138;2023-02-03T07:33:36;8.82;;;3.62;;
12181;SDS011;6154;51.550;12.138;2023-02-03T07:36:05;5.72;;;3.20;;
12181;SDS011;6154;51.550;12.138;2023-02-03T07:38:34;4.50;;;3.22;;
12181;SDS011;6154;51.550;12.138;2023-02-03T07:41:04;5.70;;;3.30;;
12181;SDS011;6154;51.550;12.138;2023-02-03T07:43:34;5.40;;;3.70;;
12181;SDS011;6154;51.550;12.138;2023-02-03T07:46:03;6.28;;;3.33;;
12181;SDS011;6154;51.550;12.138;2023-02-03T07:48:31;8.27;;;2.78;;
12181;SDS011;6154;51.550;12.138;2023-02-03T07:50:59;3.87;;;3.00;;
12181;SDS011;6154;51.550;12.138;2023-02-03T07:53:27;6.85;;;2.95;;
12181;SDS011;6154;51.550;12.138;2023-02-03T07:55:58;4.37;;;2.97;;
12181;SDS011;6154;51.550;12.138;2023-02-03T07:58:26;6.72;;;3.17;;
12181;SDS011;6154;51.550;12.138;2023-02-03T08:00:56;5.32;;;3.67;;
12181;SDS011;6154;51.550;12.138;2023-02-03T08:03:25;5.20;;;3.28;;
12181;SDS011;6154;51.550;12.138;2023-02-03T08:05:53;3.72;;;3.00;;
12181;SDS011;6154;51.550;12.138;2023-02-03T08:08:21;4.80;;;3.28;;
12181;SDS011;6154;51.550;12.138;2023-02-03T08:10:50;4.68;;;3.12;;
12181;SDS011;6154;51.550;12.138;2023-02-03T08:13:18;4.68;;;3.22;;
12181;SDS011;6154;51.550;12.138;2023-02-03T08:15:46;4.00;;;3.15;;
12181;SDS011;6154;51.550;12.138;2023-02-03T08:18:16;9.80;;;3.65;;
12181;SDS011;6154;51.550;12.138;2023-02-03T08:20:45;5.60;;;2.92;;
12181;SDS011;6154;51.550;12.138;2023-02-03T08:23:13;8.27;;;3.65;;
12181;SDS011;6154;51.550;12.138;2023-02-03T08:25:42;8.57;;;2.92;;
12181;SDS011;6154;51.550;12.138;2023-02-03T08:28:10;8.27;;;2.83;;
12181;SDS011;6154;51.550;12.138;2023-02-03T08:30:38;6.90;;;2.90;;
12181;SDS011;6154;51.550;12.138;2023-02-03T08:33:06;5.22;;;3.30;;
12181;SDS011;6154;51.550;12.138;2023-02-03T08:35:35;4.30;;;3.15;;
12181;SDS011;6154;51.550;12.138;2023-02-03T08:38:04;7.95;;;3.40;;
12181;SDS011;6154;51.550;12.138;2023-02-03T08:40:33;6.65;;;2.67;;
12181;SDS011;6154;51.550;12.138;2023-02-03T08:43:01;4.90;;;2.67;;
12181;SDS011;6154;51.550;12.138;2023-02-03T08:45:29;4.82;;;2.78;;
12181;SDS011;6154;51.550;12.138;2023-02-03T08:47:57;3.50;;;2.40;;
12181;SDS011;6154;51.550;12.138;2023-02-03T08:50:25;4.35;;;2.87;;
12181;SDS011;6154;51.550;12.138;2023-02-03T08:52:55;3.78;;;2.37;;
12181;SDS011;6154;51.550;12.138;2023-02-03T08:55:23;3.55;;;2.53;;
12181;SDS011;6154;51.550;12.138;2023-02-03T08:57:52;3.22;;;2.55;;
12181;SDS011;6154;51.550;12.138;2023-02-03T09:00:20;3.00;;;2.22;;
12181;SDS011;6154;51.550;12.138;2023-02-03T09:02:49;5.03;;;2.53;;
12181;SDS011;6154;51.550;12.138;2023-02-03T09:05:17;6.43;;;2.40;;
12181;SDS011;6154;51.550;12.138;2023-02-03T09:07:45;2.62;;;2.30;;
12181;SDS011;6154;51.550;12.138;2023-02-03T09:10:15;2.55;;;2.20;;
12181;SDS011;6154;51.550;12.138;2023-02-03T09:12:43;3.08;;;2.35;;
12181;SDS011;6154;51.550;12.138;2023-02-03T09:15:11;3.12;;;2.17;;
12181;SDS011;6154;51.550;12.138;2023-02-03T09:17:40;2.65;;;1.80;;
12181;SDS011;6154;51.550;12.138;2023-02-03T09:20:08;2.83;;;2.10;;
12181;SDS011;6154;51.550;12.138;2023-02-03T09:22:39;3.95;;;1.95;;
12181;SDS011;6154;51.550;12.138;2023-02-03T09:25:07;3.22;;;1.80;;
12181;SDS011;6154;51.550;12.138;2023-02-03T09:27:37;3.40;;;1.70;;
12181;SDS011;6154;51.550;12.138;2023-02-03T09:30:05;2.12;;;1.87;;
12181;SDS011;6154;51.550;12.138;2023-02-03T09:32:34;2.03;;;1.77;;
12181;SDS011;6154;51.550;12.138;2023-02-03T09:35:02;1.92;;;1.70;;
12181;SDS011;6154;51.550;12.138;2023-02-03T09:37:30;2.30;;;1.65;;
12181;SDS011;6154;51.550;12.138;2023-02-03T09:39:59;6.37;;;3.30;;
12181;SDS011;6154;51.550;12.138;2023-02-03T09:42:31;8.52;;;2.22;;
12181;SDS011;6154;51.550;12.138;2023-02-03T09:45:17;2.17;;;1.65;;
12181;SDS011;6154;51.550;12.138;2023-02-03T09:47:50;2.30;;;1.40;;
12181;SDS011;6154;51.550;12.138;2023-02-03T09:50:21;3.67;;;1.75;;
12181;SDS011;6154;51.550;12.138;2023-02-03T09:52:51;2.08;;;1.58;;
12181;SDS011;6154;51.550;12.138;2023-02-03T09:55:24;2.22;;;1.55;;
12181;SDS011;6154;51.550;12.138;2023-02-03T09:58:00;3.00;;;2.05;;
12181;SDS011;6154;51.550;12.138;2023-02-03T10:00:34;1.67;;;1.42;;
12181;SDS011;6154;51.550;12.138;2023-02-03T10:03:05;4.10;;;2.00;;
12181;SDS011;6154;51.550;12.138;2023-02-03T10:05:42;7.45;;;2.97;;
12181;SDS011;6154;51.550;12.138;2023-02-03T10:08:19;2.28;;;1.80;;
12181;SDS011;6154;51.550;12.138;2023-02-03T10:10:56;2.85;;;1.12;;
12181;SDS011;6154;51.550;12.138;2023-02-03T10:13:44;1.30;;;1.20;;
12181;SDS011;6154;51.550;12.138;2023-02-03T10:16:22;1.30;;;1.17;;
12181;SDS011;6154;51.550;12.138;2023-02-03T10:19:07;0.90;;;0.77;;
12181;SDS011;6154;51.550;12.138;2023-02-03T10:21:40;0.90;;;0.90;;
12181;SDS011;6154;51.550;12.138;2023-02-03T10:24:12;1.05;;;1.00;;
12181;SDS011;6154;51.550;12.138;2023-02-03T10:26:45;3.15;;;1.15;;
12181;SDS011;6154;51.550;12.138;2023-02-03T10:29:18;1.55;;;0.95;;
12181;SDS011;6154;51.550;12.138;2023-02-03T10:31:53;0.93;;;0.82;;
12181;SDS011;6154;51.550;12.138;2023-02-03T10:34:24;2.40;;;0.82;;
12181;SDS011;6154;51.550;12.138;2023-02-03T10:36:54;0.62;;;0.62;;
12181;SDS011;6154;51.550;12.138;2023-02-03T10:39:26;1.12;;;0.88;;
12181;SDS011;6154;51.550;12.138;2023-02-03T10:41:59;0.80;;;0.80;;
12181;SDS011;6154;51.550;12.138;2023-02-03T10:44:32;0.73;;;0.73;;
12181;SDS011;6154;51.550;12.138;2023-02-03T10:47:16;1.95;;;0.88;;
12181;SDS011;6154;51.550;12.138;2023-02-03T10:49:50;1.30;;;0.80;;
12181;SDS011;6154;51.550;12.138;2023-02-03T10:52:25;5.90;;;1.67;;
12181;SDS011;6154;51.550;12.138;2023-02-03T10:54:58;1.65;;;1.35;;
12181;SDS011;6154;51.550;12.138;2023-02-03T10:57:33;2.12;;;1.20;;
12181;SDS011;6154;51.550;12.138;2023-02-03T11:00:06;1.27;;;1.08;;
12181;SDS011;6154;51.550;12.138;2023-02-03T11:02:53;0.77;;;0.77;;
12181;SDS011;6154;51.550;12.138;2023-02-03T11:05:23;1.08;;;0.85;;
12181;SDS011;6154;51.550;12.138;2023-02-03T11:07:52;0.82;;;0.82;;
12181;SDS011;6154;51.550;12.138;2023-02-03T11:10:25;0.65;;;0.65;;
12181;SDS011;6154;51.550;12.138;2023-02-03T11:13:12;0.62;;;0.62;;
12181;SDS011;6154;51.550;12.138;2023-02-03T11:15:53;0.68;;;0.68;;
12181;SDS011;6154;51.550;12.138;2023-02-03T11:18:39;0.68;;;0.68;;
12181;SDS011;6154;51.550;12.138;2023-02-03T11:21:12;0.52;;;0.52;;
12181;SDS011;6154;51.550;12.138;2023-02-03T11:26:38;0.20;;;0.20;;
12181;SDS011;6154;51.550;12.138;2023-02-03T11:29:13;0.10;;;0.10;;
12181;SDS011;6154;51.550;12.138;2023-02-03T11:31:49;0.05;;;0.05;;
12181;SDS011;6154;51.550;12.138;2023-02-03T11:34:20;0.20;;;0.20;;
12181;SDS011;6154;51.550;12.138;2023-02-03T11:36:54;0.40;;;0.28;;
12181;SDS011;6154;51.550;12.138;2023-02-03T11:39:24;0.20;;;0.20;;
12181;SDS011;6154;51.550;12.138;2023-02-03T11:42:01;1.92;;;0.37;;
12181;SDS011;6154;51.550;12.138;2023-02-03T11:44:29;1.60;;;0.32;;
12181;SDS011;6154;51.550;12.138;2023-02-03T11:47:00;0.68;;;0.30;;
12181;SDS011;6154;51.550;12.138;2023-02-03T11:49:42;0.40;;;0.40;;
12181;SDS011;6154;51.550;12.138;2023-02-03T11:52:28;0.80;;;0.80;;
12181;SDS011;6154;51.550;12.138;2023-02-03T11:55:11;1.75;;;0.43;;
12181;SDS011;6154;51.550;12.138;2023-02-03T11:57:52;2.30;;;0.40;;
12181;SDS011;6154;51.550;12.138;2023-02-03T12:00:33;1.10;;;0.30;;
12181;SDS011;6154;51.550;12.138;2023-02-03T12:06:23;3.87;;;1.25;;
12181;SDS011;6154;51.550;12.138;2023-02-03T12:09:04;1.65;;;0.73;;
12181;SDS011;6154;51.550;12.138;2023-02-03T12:11:47;2.05;;;0.40;;
12181;SDS011;6154;51.550;12.138;2023-02-03T12:14:35;2.58;;;0.50;;
12181;SDS011;6154;51.550;12.138;2023-02-03T12:17:30;0.93;;;0.50;;
12181;SDS011;6154;51.550;12.138;2023-02-03T12:20:16;0.88;;;0.35;;
12181;SDS011;6154;51.550;12.138;2023-02-03T12:22:55;1.85;;;0.47;;
12181;SDS011;6154;51.550;12.138;2023-02-03T12:25:33;3.75;;;0.70;;
12181;SDS011;6154;51.550;12.138;2023-02-03T12:28:13;1.37;;;0.32;;
12181;SDS011;6154;51.550;12.138;2023-02-03T12:31:01;1.55;;;0.20;;
12181;SDS011;6154;51.550;12.138;2023-02-03T12:33:39;1.27;;;0.47;;
12181;SDS011;6154;51.550;12.138;2023-02-03T12:36:14;6.55;;;0.80;;
12181;SDS011;6154;51.550;12.138;2023-02-03T12:38:46;5.43;;;0.75;;
12181;SDS011;6154;51.550;12.138;2023-02-03T12:41:19;3.58;;;0.70;;
12181;SDS011;6154;51.550;12.138;2023-02-03T12:43:52;2.08;;;1.15;;
12181;SDS011;6154;51.550;12.138;2023-02-03T12:46:26;1.83;;;0.45;;
12181;SDS011;6154;51.550;12.138;2023-02-03T12:48:58;1.70;;;0.50;;
12181;SDS011;6154;51.550;12.138;2023-02-03T12:51:35;7.65;;;0.98;;
12181;SDS011;6154;51.550;12.138;2023-02-03T12:54:09;5.20;;;0.77;;
12181;SDS011;6154;51.550;12.138;2023-02-03T12:56:48;3.72;;;0.62;;
12181;SDS011;6154;51.550;12.138;2023-02-03T12:59:21;2.10;;;0.60;;
12181;SDS011;6154;51.550;12.138;2023-02-03T13:01:53;2.15;;;1.00;;
12181;SDS011;6154;51.550;12.138;2023-02-03T13:04:27;3.67;;;0.60;;
12181;SDS011;6154;51.550;12.138;2023-02-03T13:07:06;3.85;;;0.90;;
12181;SDS011;6154;51.550;12.138;2023-02-03T13:09:40;2.28;;;0.57;;
12181;SDS011;6154;51.550;12.138;2023-02-03T13:12:16;6.10;;;1.45;;
12181;SDS011;6154;51.550;12.138;2023-02-03T13:14:55;5.18;;;0.77;;
12181;SDS011;6154;51.550;12.138;2023-02-03T13:17:33;6.03;;;1.02;;
12181;SDS011;6154;51.550;12.138;2023-02-03T13:20:11;5.75;;;0.93;;
12181;SDS011;6154;51.550;12.138;2023-02-03T13:22:45;3.95;;;0.98;;
12181;SDS011;6154;51.550;12.138;2023-02-03T13:25:16;2.20;;;0.75;;
12181;SDS011;6154;51.550;12.138;2023-02-03T13:27:50;8.32;;;1.50;;
12181;SDS011;6154;51.550;12.138;2023-02-03T13:30:31;9.13;;;1.17;;
12181;SDS011;6154;51.550;12.138;2023-02-03T13:33:21;7.30;;;1.55;;
12181;SDS011;6154;51.550;12.138;2023-02-03T13:36:12;4.85;;;0.70;;
12181;SDS011;6154;51.550;12.138;2023-02-03T13:39:19;9.32;;;1.65;;
12181;SDS011;6154;51.550;12.138;2023-02-03T13:42:07;4.53;;;1.35;;
12181;SDS011;6154;51.550;12.138;2023-02-03T13:44:45;6.43;;;1.10;;
12181;SDS011;6154;51.550;12.138;2023-02-03T13:47:18;6.97;;;1.27;;
12181;SDS011;6154;51.550;12.138;2023-02-03T13:49:50;5.25;;;1.02;;
12181;SDS011;6154;51.550;12.138;2023-02-03T13:52:25;5.50;;;1.08;;
12181;SDS011;6154;51.550;12.138;2023-02-03T13:54:57;2.58;;;0.68;;
12181;SDS011;6154;51.550;12.138;2023-02-03T13:57:28;6.43;;;1.08;;
12181;SDS011;6154;51.550;12.138;2023-02-03T14:00:02;7.55;;;1.12;;
12181;SDS011;6154;51.550;12.138;2023-02-03T14:02:40;4.03;;;1.10;;
12181;SDS011;6154;51.550;12.138;2023-02-03T14:08:41;3.58;;;0.90;;
12181;SDS011;6154;51.550;12.138;2023-02-03T14:23:15;3.75;;;1.08;;
12181;SDS011;6154;51.550;12.138;2023-02-03T14:25:48;3.87;;;1.10;;
12181;SDS011;6154;51.550;12.138;2023-02-03T14:28:21;7.75;;;1.02;;
12181;SDS011;6154;51.550;12.138;2023-02-03T14:31:05;6.37;;;0.98;;
12181;SDS011;6154;51.550;12.138;2023-02-03T14:33:55;7.95;;;1.30;;
12181;SDS011;6154;51.550;12.138;2023-02-03T14:36:43;3.85;;;0.62;;
12181;SDS011;6154;51.550;12.138;2023-02-03T14:46:01;6.85;;;1.23;;
12181;SDS011;6154;51.550;12.138;2023-02-03T14:48:48;6.32;;;1.35;;
12181;SDS011;6154;51.550;12.138;2023-02-03T14:51:27;8.32;;;1.20;;
12181;SDS011;6154;51.550;12.138;2023-02-03T14:54:09;7.97;;;1.45;;
12181;SDS011;6154;51.550;12.138;2023-02-03T14:56:52;7.25;;;1.48;;
12181;SDS011;6154;51.550;12.138;2023-02-03T14:59:45;5.18;;;1.15;;
12181;SDS011;6154;51.550;12.138;2023-02-03T15:02:18;5.15;;;1.10;;
12181;SDS011;6154;51.550;12.138;2023-02-03T15:04:48;7.75;;;1.33;;
12181;SDS011;6154;51.550;12.138;2023-02-03T15:07:33;5.55;;;1.02;;
12181;SDS011;6154;51.550;12.138;2023-02-03T15:10:10;10.77;;;1.30;;
12181;SDS011;6154;51.550;12.138;2023-02-03T15:12:45;9.65;;;2.25;;
12181;SDS011;6154;51.550;12.138;2023-02-03T15:15:18;11.25;;;2.15;;
12181;SDS011;6154;51.550;12.138;2023-02-03T15:17:50;7.40;;;2.12;;
12181;SDS011;6154;51.550;12.138;2023-02-03T15:20:25;7.60;;;2.62;;
12181;SDS011;6154;51.550;12.138;2023-02-03T15:22:59;7.80;;;1.62;;
12181;SDS011;6154;51.550;12.138;2023-02-03T15:25:28;4.07;;;1.58;;
12181;SDS011;6154;51.550;12.138;2023-02-03T15:28:11;6.45;;;1.80;;
12181;SDS011;6154;51.550;12.138;2023-02-03T15:30:42;5.87;;;1.23;;
12181;SDS011;6154;51.550;12.138;2023-02-03T15:33:13;6.40;;;1.12;;
12181;SDS011;6154;51.550;12.138;2023-02-03T15:35:46;6.45;;;1.08;;
12181;SDS011;6154;51.550;12.138;2023-02-03T15:38:19;8.02;;;2.05;;
12181;SDS011;6154;51.550;12.138;2023-02-03T15:40:53;10.90;;;1.50;;
12181;SDS011;6154;51.550;12.138;2023-02-03T15:43:26;6.78;;;1.48;;
12181;SDS011;6154;51.550;12.138;2023-02-03T15:46:00;10.55;;;1.80;;
12181;SDS011;6154;51.550;12.138;2023-02-03T15:48:36;7.78;;;2.20;;
12181;SDS011;6154;51.550;12.138;2023-02-03T15:51:09;9.55;;;1.90;;